sensor_id;sensor_type;location;lat;lon;timestamp;temperature;humidity
52919;DHT22;38793;52.690;6.812;2023-11-19T00:01:08;10.80;99.90
52919;DHT22;38793;52.690;6.812;2023-11-19T00:03:34;10.90;99.90
52919;DHT22;38793;52.690;6.812;2023-11-19T00:06:01;10.90;99.90
52919;DHT22;38793;52.690;6.812;2023-11-19T00:08:26;10.90;99.90
52919;DHT22;38793;52.690;6.812;2023-11-19T00:10:52;10.90;99.90
52919;DHT22;38793;52.690;6.812;2023-11-19T00:13:18;10.90;99.90
52919;DHT22;38793;52.690;6.812;2023-11-19T00:15:43;11.00;99.90
52919;DHT22;38793;52.690;6.812;2023-11-19T00:18:10;11.00;99.90
52919;DHT22;38793;52.690;6.812;2023-11-19T00:20:36;11.00;99.90
52919;DHT22;38793;52.690;6.812;2023-11-19T00:23:01;11.00;99.90
52919;DHT22;38793;52.690;6.812;2023-11-19T00:25:28;11.10;99.90
52919;DHT22;38793;52.690;6.812;2023-11-19T00:27:53;11.10;99.90
52919;DHT22;38793;52.690;6.812;2023-11-19T00:30:19;11.10;99.90
52919;DHT22;38793;52.690;6.812;2023-11-19T00:32:45;11.10;99.90
52919;DHT22;38793;52.690;6.812;2023-11-19T00:35:11;11.10;99.90
52919;DHT22;38793;52.690;6.812;2023-11-19T00:37:36;11.20;99.90
52919;DHT22;38793;52.690;6.812;2023-11-19T00:40:02;11.20;99.90
52919;DHT22;38793;52.690;6.812;2023-11-19T00:42:30;11.20;99.90
52919;DHT22;38793;52.690;6.812;2023-11-19T00:44:56;11.30;99.90
52919;DHT22;38793;52.690;6.812;2023-11-19T00:47:22;11.30;99.90
52919;DHT22;38793;52.690;6.812;2023-11-19T00:49:48;11.30;99.90
52919;DHT22;38793;52.690;6.812;2023-11-19T00:52:19;11.30;99.90
52919;DHT22;38793;52.690;6.812;2023-11-19T00:54:45;11.40;99.90
52919;DHT22;38793;52.690;6.812;2023-11-19T00:57:10;11.40;99.90
52919;DHT22;38793;52.690;6.812;2023-11-19T00:59:36;11.40;99.90
52919;DHT22;38793;52.690;6.812;2023-11-19T01:02:01;11.40;99.90
52919;DHT22;38793;52.690;6.812;2023-11-19T01:04:38;11.40;99.90
52919;DHT22;38793;52.690;6.812;2023-11-19T01:07:04;11.50;99.90
52919;DHT22;38793;52.690;6.812;2023-11-19T01:09:30;11.40;99.90
52919;DHT22;38793;52.690;6.812;2023-11-19T01:12:00;11.40;99.90
52919;DHT22;38793;52.690;6.812;2023-11-19T01:14:27;11.40;99.90
52919;DHT22;38793;52.690;6.812;2023-11-19T01:16:52;11.40;99.90
52919;DHT22;38793;52.690;6.812;2023-11-19T01:19:21;11.40;99.90
52919;DHT22;38793;52.690;6.812;2023-11-19T01:21:47;11.40;99.90
52919;DHT22;38793;52.690;6.812;2023-11-19T01:24:13;11.40;99.90
52919;DHT22;38793;52.690;6.812;2023-11-19T01:26:39;11.50;99.90
52919;DHT22;38793;52.690;6.812;2023-11-19T01:29:11;11.50;99.90
52919;DHT22;38793;52.690;6.812;2023-11-19T01:31:42;11.50;99.90
52919;DHT22;38793;52.690;6.812;2023-11-19T01:34:08;11.50;99.90
52919;DHT22;38793;52.690;6.812;2023-11-19T01:36:34;11.50;99.90
52919;DHT22;38793;52.690;6.812;2023-11-19T01:39:00;11.50;99.90
52919;DHT22;38793;52.690;6.812;2023-11-19T01:41:25;11.50;99.90
52919;DHT22;38793;52.690;6.812;2023-11-19T01:43:51;11.50;99.90
52919;DHT22;38793;52.690;6.812;2023-11-19T01:46:17;11.50;99.90
52919;DHT22;38793;52.690;6.812;2023-11-19T01:48:45;11.60;99.90
52919;DHT22;38793;52.690;6.812;2023-11-19T01:51:12;11.60;99.90
52919;DHT22;38793;52.690;6.812;2023-11-19T01:53:39;11.60;99.90
52919;DHT22;38793;52.690;6.812;2023-11-19T01:56:09;11.60;99.90
52919;DHT22;38793;52.690;6.812;2023-11-19T01:58:37;11.60;99.90
52919;DHT22;38793;52.690;6.812;2023-11-19T02:01:05;11.60;99.90
52919;DHT22;38793;52.690;6.812;2023-11-19T02:03:32;11.60;99.90
52919;DHT22;38793;52.690;6.812;2023-11-19T02:06:02;11.60;99.90
52919;DHT22;38793;52.690;6.812;2023-11-19T02:08:29;11.60;99.90
52919;DHT22;38793;52.690;6.812;2023-11-19T02:10:55;11.60;99.90
52919;DHT22;38793;52.690;6.812;2023-11-19T02:13:26;11.60;99.90
52919;DHT22;38793;52.690;6.812;2023-11-19T02:15:52;11.60;99.90
52919;DHT22;38793;52.690;6.812;2023-11-19T02:18:26;11.70;99.90
52919;DHT22;38793;52.690;6.812;2023-11-19T02:20:55;11.70;99.90
52919;DHT22;38793;52.690;6.812;2023-11-19T02:23:21;11.70;99.90
52919;DHT22;38793;52.690;6.812;2023-11-19T02:28:19;11.70;99.90
52919;DHT22;38793;52.690;6.812;2023-11-19T02:30:44;11.70;99.90
52919;DHT22;38793;52.690;6.812;2023-11-19T02:33:10;11.70;99.90
52919;DHT22;38793;52.690;6.812;2023-11-19T02:35:36;11.70;99.90
52919;DHT22;38793;52.690;6.812;2023-11-19T02:38:01;11.70;99.90
52919;DHT22;38793;52.690;6.812;2023-11-19T02:40:29;11.80;99.90
52919;DHT22;38793;52.690;6.812;2023-11-19T02:42:55;11.80;99.90
52919;DHT22;38793;52.690;6.812;2023-11-19T02:45:22;11.90;99.90
52919;DHT22;38793;52.690;6.812;2023-11-19T02:47:48;11.90;99.90
52919;DHT22;38793;52.690;6.812;2023-11-19T02:50:14;11.90;99.90
52919;DHT22;38793;52.690;6.812;2023-11-19T02:52:41;11.90;99.90
52919;DHT22;38793;52.690;6.812;2023-11-19T02:55:07;11.90;99.90
52919;DHT22;38793;52.690;6.812;2023-11-19T02:57:35;12.00;99.90
52919;DHT22;38793;52.690;6.812;2023-11-19T03:00:01;12.00;99.90
52919;DHT22;38793;52.690;6.812;2023-11-19T03:02:40;12.00;99.90
52919;DHT22;38793;52.690;6.812;2023-11-19T03:05:11;12.00;99.90
52919;DHT22;38793;52.690;6.812;2023-11-19T03:07:37;12.10;99.90
52919;DHT22;38793;52.690;6.812;2023-11-19T03:10:03;12.10;99.90
52919;DHT22;38793;52.690;6.812;2023-11-19T03:12:31;12.10;99.90
52919;DHT22;38793;52.690;6.812;2023-11-19T03:14:56;12.20;99.90
52919;DHT22;38793;52.690;6.812;2023-11-19T03:17:22;12.10;99.90
52919;DHT22;38793;52.690;6.812;2023-11-19T03:19:49;12.20;99.90
52919;DHT22;38793;52.690;6.812;2023-11-19T03:22:15;12.20;99.90
52919;DHT22;38793;52.690;6.812;2023-11-19T03:24:40;12.20;99.90
52919;DHT22;38793;52.690;6.812;2023-11-19T03:27:06;12.20;99.90
52919;DHT22;38793;52.690;6.812;2023-11-19T03:29:32;12.20;99.90
52919;DHT22;38793;52.690;6.812;2023-11-19T03:31:57;12.30;99.90
52919;DHT22;38793;52.690;6.812;2023-11-19T03:34:23;12.20;99.90
52919;DHT22;38793;52.690;6.812;2023-11-19T03:36:49;12.20;99.90
52919;DHT22;38793;52.690;6.812;2023-11-19T03:39:14;12.20;99.90
52919;DHT22;38793;52.690;6.812;2023-11-19T03:41:41;12.20;99.90
52919;DHT22;38793;52.690;6.812;2023-11-19T03:44:06;12.20;99.90
52919;DHT22;38793;52.690;6.812;2023-11-19T03:46:32;12.20;99.90
52919;DHT22;38793;52.690;6.812;2023-11-19T03:48:57;12.20;99.90
52919;DHT22;38793;52.690;6.812;2023-11-19T03:51:23;12.20;99.90
52919;DHT22;38793;52.690;6.812;2023-11-19T03:53:49;12.10;99.90
52919;DHT22;38793;52.690;6.812;2023-11-19T03:56:14;12.20;99.90
52919;DHT22;38793;52.690;6.812;2023-11-19T03:58:40;12.20;99.90
52919;DHT22;38793;52.690;6.812;2023-11-19T04:01:10;12.20;99.90
52919;DHT22;38793;52.690;6.812;2023-11-19T04:03:36;12.20;99.90
52919;DHT22;38793;52.690;6.812;2023-11-19T04:06:02;12.10;99.90
52919;DHT22;38793;52.690;6.812;2023-11-19T04:08:28;12.10;99.90
52919;DHT22;38793;52.690;6.812;2023-11-19T04:10:53;12.10;99.90
52919;DHT22;38793;52.690;6.812;2023-11-19T04:13:19;12.10;99.90
52919;DHT22;38793;52.690;6.812;2023-11-19T04:15:45;12.10;99.90
52919;DHT22;38793;52.690;6.812;2023-11-19T04:18:11;12.10;99.90
52919;DHT22;38793;52.690;6.812;2023-11-19T04:20:36;12.00;99.90
52919;DHT22;38793;52.690;6.812;2023-11-19T04:23:02;12.00;99.90
52919;DHT22;38793;52.690;6.812;2023-11-19T04:25:28;12.00;99.90
52919;DHT22;38793;52.690;6.812;2023-11-19T04:27:54;12.00;99.90
52919;DHT22;38793;52.690;6.812;2023-11-19T04:30:19;12.00;99.90
52919;DHT22;38793;52.690;6.812;2023-11-19T04:32:45;12.10;99.90
52919;DHT22;38793;52.690;6.812;2023-11-19T04:35:11;12.10;99.90
52919;DHT22;38793;52.690;6.812;2023-11-19T04:37:37;12.10;99.90
52919;DHT22;38793;52.690;6.812;2023-11-19T04:40:03;12.00;99.90
52919;DHT22;38793;52.690;6.812;2023-11-19T04:42:28;12.10;99.90
52919;DHT22;38793;52.690;6.812;2023-11-19T04:44:55;12.10;99.90
52919;DHT22;38793;52.690;6.812;2023-11-19T04:47:21;12.10;99.90
52919;DHT22;38793;52.690;6.812;2023-11-19T04:49:46;12.10;99.90
52919;DHT22;38793;52.690;6.812;2023-11-19T04:52:12;12.10;99.90
52919;DHT22;38793;52.690;6.812;2023-11-19T04:54:42;12.10;99.90
52919;DHT22;38793;52.690;6.812;2023-11-19T04:57:08;12.10;99.90
52919;DHT22;38793;52.690;6.812;2023-11-19T04:59:36;12.00;99.90
52919;DHT22;38793;52.690;6.812;2023-11-19T05:02:02;12.00;99.90
52919;DHT22;38793;52.690;6.812;2023-11-19T05:04:29;12.10;99.90
52919;DHT22;38793;52.690;6.812;2023-11-19T05:06:55;12.00;99.90
52919;DHT22;38793;52.690;6.812;2023-11-19T05:09:20;12.00;99.90
52919;DHT22;38793;52.690;6.812;2023-11-19T05:11:46;12.00;99.90
52919;DHT22;38793;52.690;6.812;2023-11-19T05:14:12;12.00;99.90
52919;DHT22;38793;52.690;6.812;2023-11-19T05:16:40;12.00;99.90
52919;DHT22;38793;52.690;6.812;2023-11-19T05:19:06;12.00;99.90
52919;DHT22;38793;52.690;6.812;2023-11-19T05:21:31;12.00;99.90
52919;DHT22;38793;52.690;6.812;2023-11-19T05:23:57;12.00;99.90
52919;DHT22;38793;52.690;6.812;2023-11-19T05:26:23;12.10;99.90
52919;DHT22;38793;52.690;6.812;2023-11-19T05:28:50;12.10;99.90
52919;DHT22;38793;52.690;6.812;2023-11-19T05:31:17;12.00;99.90
52919;DHT22;38793;52.690;6.812;2023-11-19T05:33:43;12.00;99.90
52919;DHT22;38793;52.690;6.812;2023-11-19T05:36:10;12.00;99.90
52919;DHT22;38793;52.690;6.812;2023-11-19T05:38:36;12.00;99.90
52919;DHT22;38793;52.690;6.812;2023-11-19T05:41:02;12.00;99.90
52919;DHT22;38793;52.690;6.812;2023-11-19T05:43:28;12.10;99.90
52919;DHT22;38793;52.690;6.812;2023-11-19T05:45:54;12.00;99.90
52919;DHT22;38793;52.690;6.812;2023-11-19T05:48:19;12.10;99.90
52919;DHT22;38793;52.690;6.812;2023-11-19T05:50:45;12.00;99.90
52919;DHT22;38793;52.690;6.812;2023-11-19T05:53:11;12.00;99.90
52919;DHT22;38793;52.690;6.812;2023-11-19T05:55:39;12.00;99.90
52919;DHT22;38793;52.690;6.812;2023-11-19T05:58:11;12.00;99.90
52919;DHT22;38793;52.690;6.812;2023-11-19T06:00:38;12.00;99.90
52919;DHT22;38793;52.690;6.812;2023-11-19T06:03:06;12.00;99.90
52919;DHT22;38793;52.690;6.812;2023-11-19T06:05:32;12.00;99.90
52919;DHT22;38793;52.690;6.812;2023-11-19T06:07:57;12.00;99.90
52919;DHT22;38793;52.690;6.812;2023-11-19T06:10:23;12.00;99.90
52919;DHT22;38793;52.690;6.812;2023-11-19T06:12:54;12.00;99.90
52919;DHT22;38793;52.690;6.812;2023-11-19T06:15:22;12.00;99.90
52919;DHT22;38793;52.690;6.812;2023-11-19T06:17:48;12.00;99.90
52919;DHT22;38793;52.690;6.812;2023-11-19T06:20:13;12.00;99.90
52919;DHT22;38793;52.690;6.812;2023-11-19T06:22:39;12.00;99.90
52919;DHT22;38793;52.690;6.812;2023-11-19T06:25:08;12.00;99.90
52919;DHT22;38793;52.690;6.812;2023-11-19T06:27:33;12.00;99.90
52919;DHT22;38793;52.690;6.812;2023-11-19T06:30:00;11.90;99.90
52919;DHT22;38793;52.690;6.812;2023-11-19T06:32:26;12.00;99.90
52919;DHT22;38793;52.690;6.812;2023-11-19T06:34:51;11.90;99.90
52919;DHT22;38793;52.690;6.812;2023-11-19T06:37:17;11.90;99.90
52919;DHT22;38793;52.690;6.812;2023-11-19T06:39:42;11.80;99.90
52919;DHT22;38793;52.690;6.812;2023-11-19T06:42:08;11.80;99.90
52919;DHT22;38793;52.690;6.812;2023-11-19T06:44:34;11.80;99.90
52919;DHT22;38793;52.690;6.812;2023-11-19T06:46:59;11.80;99.90
52919;DHT22;38793;52.690;6.812;2023-11-19T06:49:25;11.80;99.90
52919;DHT22;38793;52.690;6.812;2023-11-19T06:51:51;11.70;99.90
52919;DHT22;38793;52.690;6.812;2023-11-19T06:54:16;11.70;99.90
52919;DHT22;38793;52.690;6.812;2023-11-19T06:56:42;11.70;99.90
52919;DHT22;38793;52.690;6.812;2023-11-19T06:59:09;11.70;99.90
52919;DHT22;38793;52.690;6.812;2023-11-19T07:01:35;11.70;99.90
52919;DHT22;38793;52.690;6.812;2023-11-19T07:04:01;11.70;99.90
52919;DHT22;38793;52.690;6.812;2023-11-19T07:06:33;11.70;99.90
52919;DHT22;38793;52.690;6.812;2023-11-19T07:09:00;11.70;99.90
52919;DHT22;38793;52.690;6.812;2023-11-19T07:11:28;11.70;99.90
52919;DHT22;38793;52.690;6.812;2023-11-19T07:13:54;11.60;99.90
52919;DHT22;38793;52.690;6.812;2023-11-19T07:16:20;11.60;99.90
52919;DHT22;38793;52.690;6.812;2023-11-19T07:18:48;11.60;99.90
52919;DHT22;38793;52.690;6.812;2023-11-19T07:21:15;11.60;99.90
52919;DHT22;38793;52.690;6.812;2023-11-19T07:23:41;11.60;99.90
52919;DHT22;38793;52.690;6.812;2023-11-19T07:26:07;11.60;99.90
52919;DHT22;38793;52.690;6.812;2023-11-19T07:28:33;11.50;99.90
52919;DHT22;38793;52.690;6.812;2023-11-19T07:31:00;11.60;99.90
52919;DHT22;38793;52.690;6.812;2023-11-19T07:33:25;11.50;99.90
52919;DHT22;38793;52.690;6.812;2023-11-19T07:35:51;11.50;99.90
52919;DHT22;38793;52.690;6.812;2023-11-19T07:38:17;11.50;99.90
52919;DHT22;38793;52.690;6.812;2023-11-19T07:40:42;11.60;99.90
52919;DHT22;38793;52.690;6.812;2023-11-19T07:43:08;11.50;99.90
52919;DHT22;38793;52.690;6.812;2023-11-19T07:45:34;11.50;99.90
52919;DHT22;38793;52.690;6.812;2023-11-19T07:48:00;11.60;99.90
52919;DHT22;38793;52.690;6.812;2023-11-19T07:50:26;11.50;99.90
52919;DHT22;38793;52.690;6.812;2023-11-19T07:52:53;11.50;99.90
52919;DHT22;38793;52.690;6.812;2023-11-19T07:55:18;11.50;99.90
52919;DHT22;38793;52.690;6.812;2023-11-19T07:57:44;11.50;99.90
52919;DHT22;38793;52.690;6.812;2023-11-19T08:00:10;11.50;99.90
52919;DHT22;38793;52.690;6.812;2023-11-19T08:02:39;11.60;99.90
52919;DHT22;38793;52.690;6.812;2023-11-19T08:05:05;11.60;99.90
52919;DHT22;38793;52.690;6.812;2023-11-19T08:07:31;11.60;99.90
52919;DHT22;38793;52.690;6.812;2023-11-19T08:09:57;11.60;99.90
52919;DHT22;38793;52.690;6.812;2023-11-19T08:12:23;11.60;99.90
52919;DHT22;38793;52.690;6.812;2023-11-19T08:14:48;11.60;99.90
52919;DHT22;38793;52.690;6.812;2023-11-19T08:17:14;11.60;99.90
52919;DHT22;38793;52.690;6.812;2023-11-19T08:19:41;11.60;99.90
52919;DHT22;38793;52.690;6.812;2023-11-19T08:22:07;11.60;99.90
52919;DHT22;38793;52.690;6.812;2023-11-19T08:24:34;11.60;99.90
52919;DHT22;38793;52.690;6.812;2023-11-19T08:27:00;11.70;99.90
52919;DHT22;38793;52.690;6.812;2023-11-19T08:29:26;11.70;99.90
52919;DHT22;38793;52.690;6.812;2023-11-19T08:31:53;11.70;99.90
52919;DHT22;38793;52.690;6.812;2023-11-19T08:34:18;11.70;99.90
52919;DHT22;38793;52.690;6.812;2023-11-19T08:36:44;11.70;99.90
52919;DHT22;38793;52.690;6.812;2023-11-19T08:39:09;11.70;99.90
52919;DHT22;38793;52.690;6.812;2023-11-19T08:41:35;11.60;99.90
52919;DHT22;38793;52.690;6.812;2023-11-19T08:44:03;11.60;99.90
52919;DHT22;38793;52.690;6.812;2023-11-19T08:46:29;11.60;99.90
52919;DHT22;38793;52.690;6.812;2023-11-19T08:48:54;11.60;99.90
52919;DHT22;38793;52.690;6.812;2023-11-19T08:51:22;11.50;99.90
52919;DHT22;38793;52.690;6.812;2023-11-19T08:53:50;11.50;99.90
52919;DHT22;38793;52.690;6.812;2023-11-19T08:56:15;11.40;99.90
52919;DHT22;38793;52.690;6.812;2023-11-19T08:58:41;11.50;99.90
52919;DHT22;38793;52.690;6.812;2023-11-19T09:01:06;11.50;99.90
52919;DHT22;38793;52.690;6.812;2023-11-19T09:03:32;11.50;99.90
52919;DHT22;38793;52.690;6.812;2023-11-19T09:05:58;11.60;99.90
52919;DHT22;38793;52.690;6.812;2023-11-19T09:08:23;11.70;99.90
52919;DHT22;38793;52.690;6.812;2023-11-19T09:10:49;11.70;99.90
52919;DHT22;38793;52.690;6.812;2023-11-19T09:13:14;11.80;99.90
52919;DHT22;38793;52.690;6.812;2023-11-19T09:15:40;11.80;99.90
52919;DHT22;38793;52.690;6.812;2023-11-19T09:18:07;11.80;99.90
52919;DHT22;38793;52.690;6.812;2023-11-19T09:20:33;11.80;99.90
52919;DHT22;38793;52.690;6.812;2023-11-19T09:23:04;11.80;99.90
52919;DHT22;38793;52.690;6.812;2023-11-19T09:25:30;11.80;99.90
52919;DHT22;38793;52.690;6.812;2023-11-19T09:27:56;11.80;99.90
52919;DHT22;38793;52.690;6.812;2023-11-19T09:30:21;11.80;99.90
52919;DHT22;38793;52.690;6.812;2023-11-19T09:32:48;11.90;99.90
52919;DHT22;38793;52.690;6.812;2023-11-19T09:35:14;11.90;99.90
52919;DHT22;38793;52.690;6.812;2023-11-19T09:37:40;12.00;99.90
52919;DHT22;38793;52.690;6.812;2023-11-19T09:40:06;12.00;99.90
52919;DHT22;38793;52.690;6.812;2023-11-19T09:42:45;12.10;99.90
52919;DHT22;38793;52.690;6.812;2023-11-19T09:45:15;12.10;99.90
52919;DHT22;38793;52.690;6.812;2023-11-19T09:47:44;12.10;99.90
52919;DHT22;38793;52.690;6.812;2023-11-19T09:50:17;12.10;99.90
52919;DHT22;38793;52.690;6.812;2023-11-19T09:52:47;12.20;99.90
52919;DHT22;38793;52.690;6.812;2023-11-19T09:55:13;12.20;99.90
52919;DHT22;38793;52.690;6.812;2023-11-19T09:57:40;12.20;99.90
52919;DHT22;38793;52.690;6.812;2023-11-19T10:00:07;12.20;99.90
52919;DHT22;38793;52.690;6.812;2023-11-19T10:02:33;12.20;99.90
52919;DHT22;38793;52.690;6.812;2023-11-19T10:05:04;12.20;99.90
52919;DHT22;38793;52.690;6.812;2023-11-19T10:07:34;12.20;99.90
52919;DHT22;38793;52.690;6.812;2023-11-19T10:10:03;12.20;99.90
52919;DHT22;38793;52.690;6.812;2023-11-19T10:12:32;12.20;99.90
52919;DHT22;38793;52.690;6.812;2023-11-19T10:14:59;12.30;99.90
52919;DHT22;38793;52.690;6.812;2023-11-19T10:17:28;12.30;99.90
52919;DHT22;38793;52.690;6.812;2023-11-19T10:19:55;12.30;99.90
52919;DHT22;38793;52.690;6.812;2023-11-19T10:22:23;12.30;99.90
52919;DHT22;38793;52.690;6.812;2023-11-19T10:24:49;12.30;99.90
52919;DHT22;38793;52.690;6.812;2023-11-19T10:27:15;12.40;99.90
52919;DHT22;38793;52.690;6.812;2023-11-19T10:29:47;12.40;99.90
52919;DHT22;38793;52.690;6.812;2023-11-19T10:32:13;12.40;99.90
52919;DHT22;38793;52.690;6.812;2023-11-19T10:34:40;12.30;99.90
52919;DHT22;38793;52.690;6.812;2023-11-19T10:37:07;12.30;99.90
52919;DHT22;38793;52.690;6.812;2023-11-19T10:39:52;12.20;99.90
52919;DHT22;38793;52.690;6.812;2023-11-19T10:42:21;12.20;99.90
52919;DHT22;38793;52.690;6.812;2023-11-19T10:44:46;12.20;99.90
52919;DHT22;38793;52.690;6.812;2023-11-19T10:47:14;12.20;99.90
52919;DHT22;38793;52.690;6.812;2023-11-19T10:49:39;12.20;99.90
52919;DHT22;38793;52.690;6.812;2023-11-19T10:52:08;12.10;99.90
52919;DHT22;38793;52.690;6.812;2023-11-19T10:54:34;12.10;99.90
52919;DHT22;38793;52.690;6.812;2023-11-19T10:57:01;12.20;99.90
52919;DHT22;38793;52.690;6.812;2023-11-19T10:59:31;12.20;99.90
52919;DHT22;38793;52.690;6.812;2023-11-19T11:02:03;12.20;99.90
52919;DHT22;38793;52.690;6.812;2023-11-19T11:04:33;12.30;99.90
52919;DHT22;38793;52.690;6.812;2023-11-19T11:07:01;12.40;99.90
52919;DHT22;38793;52.690;6.812;2023-11-19T11:09:27;12.50;99.90
52919;DHT22;38793;52.690;6.812;2023-11-19T11:11:54;12.60;99.90
52919;DHT22;38793;52.690;6.812;2023-11-19T11:14:21;12.60;99.90
52919;DHT22;38793;52.690;6.812;2023-11-19T11:54:10;12.40;99.90
52919;DHT22;38793;52.690;6.812;2023-11-19T11:56:39;12.30;99.90
52919;DHT22;38793;52.690;6.812;2023-11-19T11:59:20;12.20;99.90
52919;DHT22;38793;52.690;6.812;2023-11-19T12:01:58;12.10;99.90
52919;DHT22;38793;52.690;6.812;2023-11-19T12:04:28;12.00;99.90
52919;DHT22;38793;52.690;6.812;2023-11-19T12:07:13;12.00;99.90
52919;DHT22;38793;52.690;6.812;2023-11-19T12:09:45;11.90;99.90
52919;DHT22;38793;52.690;6.812;2023-11-19T12:12:22;11.90;99.90
52919;DHT22;38793;52.690;6.812;2023-11-19T12:20:06;12.10;99.90
52919;DHT22;38793;52.690;6.812;2023-11-19T12:22:38;12.10;99.90
52919;DHT22;38793;52.690;6.812;2023-11-19T12:25:05;12.10;99.90
52919;DHT22;38793;52.690;6.812;2023-11-19T12:27:32;12.10;99.90
52919;DHT22;38793;52.690;6.812;2023-11-19T12:29:59;12.20;99.90
52919;DHT22;38793;52.690;6.812;2023-11-19T12:32:25;12.30;99.90
52919;DHT22;38793;52.690;6.812;2023-11-19T12:34:51;12.40;99.90
52919;DHT22;38793;52.690;6.812;2023-11-19T12:37:16;12.50;99.90
52919;DHT22;38793;52.690;6.812;2023-11-19T12:39:42;12.60;99.90
52919;DHT22;38793;52.690;6.812;2023-11-19T14:39:59;11.70;99.90
52919;DHT22;38793;52.690;6.812;2023-11-19T14:42:25;11.70;99.90
52919;DHT22;38793;52.690;6.812;2023-11-19T14:44:51;11.70;99.90
52919;DHT22;38793;52.690;6.812;2023-11-19T14:47:21;11.60;99.90
52919;DHT22;38793;52.690;6.812;2023-11-19T14:49:47;11.60;99.90
52919;DHT22;38793;52.690;6.812;2023-11-19T14:52:13;11.60;99.90
52919;DHT22;38793;52.690;6.812;2023-11-19T14:54:39;11.60;99.90
52919;DHT22;38793;52.690;6.812;2023-11-19T14:57:05;11.60;99.90
52919;DHT22;38793;52.690;6.812;2023-11-19T14:59:31;11.60;99.90
52919;DHT22;38793;52.690;6.812;2023-11-19T15:01:58;11.50;99.90
52919;DHT22;38793;52.690;6.812;2023-11-19T15:04:24;11.50;99.90
52919;DHT22;38793;52.690;6.812;2023-11-19T15:10:35;11.40;99.90
52919;DHT22;38793;52.690;6.812;2023-11-19T15:13:01;11.40;99.90
52919;DHT22;38793;52.690;6.812;2023-11-19T15:15:26;11.40;99.90
52919;DHT22;38793;52.690;6.812;2023-11-19T15:17:52;11.40;99.90
52919;DHT22;38793;52.690;6.812;2023-11-19T15:20:17;11.30;99.90
52919;DHT22;38793;52.690;6.812;2023-11-19T15:22:43;11.30;99.90
52919;DHT22;38793;52.690;6.812;2023-11-19T15:25:09;11.30;99.90
52919;DHT22;38793;52.690;6.812;2023-11-19T15:27:36;11.30;99.90
52919;DHT22;38793;52.690;6.812;2023-11-19T15:30:02;11.30;99.90
52919;DHT22;38793;52.690;6.812;2023-11-19T15:32:28;11.30;99.90
52919;DHT22;38793;52.690;6.812;2023-11-19T15:34:57;11.30;99.90
52919;DHT22;38793;52.690;6.812;2023-11-19T15:37:23;11.30;99.90
52919;DHT22;38793;52.690;6.812;2023-11-19T15:39:48;11.30;99.90
52919;DHT22;38793;52.690;6.812;2023-11-19T15:42:17;11.30;99.90
52919;DHT22;38793;52.690;6.812;2023-11-19T15:44:42;11.30;99.90
52919;DHT22;38793;52.690;6.812;2023-11-19T15:47:09;11.30;99.90
52919;DHT22;38793;52.690;6.812;2023-11-19T15:49:34;11.30;99.90
52919;DHT22;38793;52.690;6.812;2023-11-19T15:52:01;11.30;99.90
52919;DHT22;38793;52.690;6.812;2023-11-19T15:54:26;11.30;99.90
52919;DHT22;38793;52.690;6.812;2023-11-19T15:56:52;11.30;99.90
52919;DHT22;38793;52.690;6.812;2023-11-19T15:59:18;11.30;99.90
52919;DHT22;38793;52.690;6.812;2023-11-19T16:01:43;11.30;99.90
52919;DHT22;38793;52.690;6.812;2023-11-19T16:04:09;11.30;99.90
52919;DHT22;38793;52.690;6.812;2023-11-19T16:06:35;11.30;99.90
52919;DHT22;38793;52.690;6.812;2023-11-19T16:09:01;11.30;99.90
52919;DHT22;38793;52.690;6.812;2023-11-19T16:11:27;11.30;99.90
52919;DHT22;38793;52.690;6.812;2023-11-19T16:13:53;11.30;99.90
52919;DHT22;38793;52.690;6.812;2023-11-19T16:16:18;11.30;99.90
52919;DHT22;38793;52.690;6.812;2023-11-19T16:18:44;11.30;99.90
52919;DHT22;38793;52.690;6.812;2023-11-19T16:21:10;11.30;99.90
52919;DHT22;38793;52.690;6.812;2023-11-19T16:23:35;11.30;99.90
52919;DHT22;38793;52.690;6.812;2023-11-19T16:26:01;11.30;99.90
52919;DHT22;38793;52.690;6.812;2023-11-19T16:28:27;11.30;99.90
52919;DHT22;38793;52.690;6.812;2023-11-19T16:30:52;11.30;99.90
52919;DHT22;38793;52.690;6.812;2023-11-19T16:33:18;11.30;99.90
52919;DHT22;38793;52.690;6.812;2023-11-19T16:35:43;11.30;99.90
52919;DHT22;38793;52.690;6.812;2023-11-19T16:38:09;11.20;99.90
52919;DHT22;38793;52.690;6.812;2023-11-19T16:40:34;11.30;99.90
52919;DHT22;38793;52.690;6.812;2023-11-19T16:43:05;11.30;99.90
52919;DHT22;38793;52.690;6.812;2023-11-19T16:45:31;11.20;99.90
52919;DHT22;38793;52.690;6.812;2023-11-19T16:47:58;11.20;99.90
52919;DHT22;38793;52.690;6.812;2023-11-19T16:50:23;11.20;99.90
52919;DHT22;38793;52.690;6.812;2023-11-19T16:52:49;11.20;99.90
52919;DHT22;38793;52.690;6.812;2023-11-19T16:55:14;11.20;99.90
52919;DHT22;38793;52.690;6.812;2023-11-19T16:57:41;11.10;99.90
52919;DHT22;38793;52.690;6.812;2023-11-19T17:00:09;11.20;99.90
52919;DHT22;38793;52.690;6.812;2023-11-19T17:02:39;11.20;99.90
52919;DHT22;38793;52.690;6.812;2023-11-19T17:05:11;11.10;99.90
52919;DHT22;38793;52.690;6.812;2023-11-19T17:07:37;11.10;99.90
52919;DHT22;38793;52.690;6.812;2023-11-19T17:10:03;11.10;99.90
52919;DHT22;38793;52.690;6.812;2023-11-19T17:12:30;11.10;99.90
52919;DHT22;38793;52.690;6.812;2023-11-19T17:14:56;11.10;99.90
52919;DHT22;38793;52.690;6.812;2023-11-19T17:17:37;11.10;99.90
52919;DHT22;38793;52.690;6.812;2023-11-19T17:20:05;11.10;99.90
52919;DHT22;38793;52.690;6.812;2023-11-19T17:22:35;11.10;99.90
52919;DHT22;38793;52.690;6.812;2023-11-19T17:25:02;11.10;99.90
52919;DHT22;38793;52.690;6.812;2023-11-19T17:27:29;11.10;99.90
52919;DHT22;38793;52.690;6.812;2023-11-19T17:29:55;11.10;99.90
52919;DHT22;38793;52.690;6.812;2023-11-19T17:32:22;11.10;99.90
52919;DHT22;38793;52.690;6.812;2023-11-19T17:34:47;11.10;99.90
52919;DHT22;38793;52.690;6.812;2023-11-19T17:37:13;11.10;99.90
52919;DHT22;38793;52.690;6.812;2023-11-19T17:39:39;11.10;99.90
52919;DHT22;38793;52.690;6.812;2023-11-19T17:42:05;11.10;99.90
52919;DHT22;38793;52.690;6.812;2023-11-19T17:44:30;11.20;99.90
52919;DHT22;38793;52.690;6.812;2023-11-19T17:46:56;11.10;99.90
52919;DHT22;38793;52.690;6.812;2023-11-19T17:49:22;11.10;99.90
52919;DHT22;38793;52.690;6.812;2023-11-19T17:51:47;11.10;99.90
52919;DHT22;38793;52.690;6.812;2023-11-19T17:54:13;11.20;99.90
52919;DHT22;38793;52.690;6.812;2023-11-19T17:56:38;11.10;99.90
52919;DHT22;38793;52.690;6.812;2023-11-19T17:59:05;11.10;99.90
52919;DHT22;38793;52.690;6.812;2023-11-19T18:01:30;11.10;99.90
52919;DHT22;38793;52.690;6.812;2023-11-19T18:03:56;11.10;99.90
52919;DHT22;38793;52.690;6.812;2023-11-19T18:06:21;11.10;99.90
52919;DHT22;38793;52.690;6.812;2023-11-19T18:08:49;11.20;99.90
52919;DHT22;38793;52.690;6.812;2023-11-19T18:11:15;11.20;99.90
52919;DHT22;38793;52.690;6.812;2023-11-19T18:13:40;11.20;99.90